Kill Devil Hills, NC

1:42 PM EDT on July 22, 2017 (GMT -0400)
First Flight

Weather History for KFFA - March, 2014

Change the Weather History Date:

Thursday, March 13, 2014

  Actual Average (KMQI) Record (KMQI)
Temperature  
Mean Temperature 46 °F -  
Max Temperature 54 °F 54 °F 83 °F (1990)
Min Temperature 37 °F 42 °F 10 °F (1984)
Degree Days  
Heating Degree Days 20    
Moisture  
Dew Point 15 °F    
Average Humidity 37    
Maximum Humidity 72    
Minimum Humidity 18    
Precipitation  
Precipitation 0.00 in - - ()
Sea Level Pressure  
Sea Level Pressure 29.84 in    
Wind  
Wind Speed 16 mph (WNW)    
Max Wind Speed 22 mph    
Max Gust Speed 37 mph    
Visibility 10 miles    
Events      
Averages and records for this station are not official NWS values.
T = Trace of Precipitation, MM = Missing Value Source: NWS Daily Summary

Daily Weather History Graph

Daily Weather History Graph

Search for Another Location

Airport or City:

Trip Planner

Search our weather history database for the weather conditions in past years. The results will help you decide how hot, cold, wet, or windy it might be!

Date:

Astronomy

Mar. 13, 2014 Rise Set
Actual Time 7:16 AM EDT 7:08 PM EDT
Civil Twilight 6:50 AM EDT 7:33 PM EDT
Nautical Twilight 6:21 AM EDT 8:03 PM EDT
Astronomical Twilight 5:51 AM EDT 8:33 PM EDT
Moon 4:35 PM EDT (3/13) 5:17 AM EDT (3/13)
Length of Visible Light 12h 43m
Length of Day
11h 52m
Waxing Gibbous, 91% of the Moon is Illuminated
Mar 13
Waxing Gibbous
Mar 16
Full
Mar 23
Last Quarter
Mar 30
New
Apr 7
First Quarter

Hourly Weather History & Observations

Time (EDT) Temp. Windchill Dew Point Humidity Pressure Visibility Wind Dir Wind Speed Gust Speed Precip Events Conditions
12:15 AM 54.1 °F - 45.1 °F 72% 29.40 in 10.0 mi West 20.7 mph 33.4 mph N/A   Overcast
12:35 AM 52.5 °F - 40.1 °F 63% 29.42 in 10.0 mi WNW 16.1 mph 33.4 mph N/A   Overcast
12:55 AM 51.3 °F - 36.1 °F 56% 29.43 in 10.0 mi WNW 17.3 mph 36.8 mph N/A   Overcast
1:15 AM 50.2 °F - 34.9 °F 56% 29.45 in 10.0 mi WNW 21.9 mph 34.5 mph N/A   Mostly Cloudy
1:35 AM 49.1 °F - 32.4 °F 53% 29.47 in 10.0 mi WNW 16.1 mph 32.2 mph N/A   Mostly Cloudy
1:55 AM 48.7 °F - 32.4 °F 53% 29.49 in 10.0 mi West 20.7 mph 32.2 mph N/A   Scattered Clouds
2:15 AM 47.8 °F - 32.4 °F 55% 29.50 in 10.0 mi WNW 19.6 mph 27.6 mph N/A   Clear
2:35 AM 46.8 °F - 31.8 °F 56% 29.52 in 10.0 mi WNW 19.6 mph 29.9 mph N/A   Clear
2:55 AM 46.0 °F 38.5 °F 30.0 °F 54% 29.54 in 10.0 mi NW 19.6 mph 34.5 mph N/A   Clear
3:15 AM 45.3 °F 37.8 °F 28.6 °F 52% 29.56 in 10.0 mi NW 18.4 mph 27.6 mph N/A   Scattered Clouds
3:35 AM 43.7 °F 35.4 °F 27.1 °F 52% 29.58 in 10.0 mi NW 19.6 mph 27.6 mph N/A   Scattered Clouds
3:55 AM 42.6 °F 36.3 °F 25.0 °F 50% 29.60 in 10.0 mi WNW 11.5 mph 29.9 mph N/A   Clear
4:15 AM 42.1 °F 34.9 °F 24.8 °F 50% 29.60 in 10.0 mi WNW 13.8 mph 24.2 mph N/A   Clear
4:35 AM 41.5 °F 32.6 °F 22.3 °F 46% 29.60 in 10.0 mi NW 19.6 mph 33.4 mph N/A   Clear
4:55 AM 41.0 °F 33.5 °F 22.6 °F 48% 29.62 in 10.0 mi NW 13.8 mph 26.5 mph N/A   Clear
5:15 AM 40.8 °F 33.7 °F 23.7 °F 51% 29.63 in 10.0 mi NW 12.7 mph 21.9 mph N/A   Clear
5:35 AM 40.3 °F 33.0 °F 23.7 °F 52% 29.64 in 10.0 mi WNW 12.7 mph 24.2 mph N/A   Clear
5:55 AM 40.1 °F 32.0 °F 23.7 °F 52% 29.65 in 10.0 mi NW 15.0 mph 29.9 mph N/A   Clear
6:15 AM 39.6 °F 31.3 °F 23.0 °F 52% 29.66 in 10.0 mi NW 15.0 mph 21.9 mph N/A   Clear
6:35 AM 39.6 °F 31.3 °F 22.6 °F 51% 29.67 in 10.0 mi NW 15.0 mph 24.2 mph N/A   Clear
6:55 AM 39.4 °F 31.4 °F 22.3 °F 50% 29.68 in 10.0 mi NW 13.8 mph 27.6 mph N/A   Clear
7:15 AM 39.2 °F 30.5 °F 23.2 °F 53% 29.70 in 10.0 mi WNW 16.1 mph 24.2 mph N/A   Clear
7:35 AM 39.2 °F 32.0 °F 23.4 °F 53% 29.71 in 10.0 mi NW 11.5 mph 24.2 mph N/A   Clear
7:55 AM 39.4 °F 30.7 °F 23.9 °F 54% 29.73 in 10.0 mi WNW 16.1 mph 24.2 mph N/A   Scattered Clouds
8:15 AM 38.8 °F 29.4 °F 21.9 °F 51% 29.75 in 10.0 mi NW 18.4 mph 28.8 mph N/A   Clear
8:35 AM 39.0 °F 29.6 °F 20.7 °F 48% 29.77 in 10.0 mi WNW 18.4 mph 29.9 mph N/A   Clear
8:55 AM 39.2 °F 30.2 °F 19.8 °F 46% 29.79 in 10.0 mi WNW 17.3 mph 25.3 mph N/A   Scattered Clouds
9:15 AM 39.6 °F 31.7 °F 19.4 °F 44% 29.80 in 10.0 mi WNW 13.8 mph 29.9 mph N/A   Mostly Cloudy
9:35 AM 39.0 °F 31.0 °F 19.9 °F 46% 29.82 in 10.0 mi WNW 13.8 mph 28.8 mph N/A   Overcast
9:55 AM 38.7 °F 30.1 °F 20.1 °F 47% 29.83 in 10.0 mi West 15.0 mph 26.5 mph N/A   Overcast
10:15 AM 38.5 °F 29.9 °F 19.2 °F 46% 29.84 in 10.0 mi West 15.0 mph 27.6 mph N/A   Mostly Cloudy
10:35 AM 39.2 °F 31.6 °F 17.1 °F 41% 29.85 in 10.0 mi WNW 12.7 mph 31.1 mph N/A   Scattered Clouds
10:55 AM 39.4 °F 30.7 °F 15.4 °F 38% 29.86 in 10.0 mi West 16.1 mph 27.6 mph N/A   Clear
11:15 AM 39.6 °F 30.3 °F 13.3 °F 34% 29.86 in 10.0 mi West 18.4 mph 25.3 mph N/A   Clear
11:35 AM 39.9 °F 30.8 °F 12.2 °F 32% 29.87 in 10.0 mi WNW 18.4 mph 27.6 mph N/A   Clear
11:55 AM 39.9 °F 31.8 °F 10.9 °F 31% 29.87 in 10.0 mi WNW 15.0 mph 25.3 mph N/A   Clear
12:15 PM 40.3 °F 31.9 °F 12.2 °F 32% 29.87 in 10.0 mi WNW 16.1 mph 26.5 mph N/A   Clear
12:35 PM 40.3 °F 31.3 °F 11.1 °F 30% 29.88 in 10.0 mi WNW 18.4 mph 27.6 mph N/A   Clear
12:55 PM 40.3 °F 32.2 °F 8.2 °F 27% 29.89 in 10.0 mi WNW 15.0 mph 32.2 mph N/A   Clear
1:15 PM 40.5 °F 31.8 °F 6.6 °F 25% 29.89 in 10.0 mi WNW 17.3 mph 25.3 mph N/A   Clear
1:35 PM 40.6 °F 31.7 °F 4.8 °F 23% 29.90 in 10.0 mi NW 18.4 mph 31.1 mph N/A   Clear
1:55 PM 40.8 °F 33.3 °F 3.2 °F 21% 29.90 in 10.0 mi WNW 13.8 mph 23.0 mph N/A   Clear
2:15 PM 41.0 °F 32.8 °F 7.0 °F 25% 29.91 in 10.0 mi WNW 16.1 mph 27.6 mph N/A   Clear
2:35 PM 41.0 °F 32.2 °F 7.0 °F 25% 29.91 in 10.0 mi WNW 18.4 mph 26.5 mph N/A   Clear
2:55 PM 41.2 °F 33.7 °F 7.5 °F 25% 29.91 in 10.0 mi WNW 13.8 mph 26.5 mph N/A   Clear
3:15 PM 41.7 °F 33.7 °F 7.2 °F 24% 29.92 in 10.0 mi West 16.1 mph 24.2 mph N/A   Clear
3:35 PM 41.5 °F 33.8 °F 7.5 °F 25% 29.93 in 10.0 mi West 15.0 mph 28.8 mph N/A   Clear
3:55 PM 42.1 °F 34.5 °F 6.4 °F 23% 29.94 in 10.0 mi WNW 15.0 mph 24.2 mph N/A   Clear
4:15 PM 42.1 °F 34.9 °F 4.3 °F 21% 29.95 in 10.0 mi NW 13.8 mph 24.2 mph N/A   Clear
4:35 PM 41.5 °F 32.6 °F 0.9 °F 18% 29.96 in 10.0 mi WNW 19.6 mph 29.9 mph N/A   Clear
4:55 PM 41.0 °F 32.8 °F -0.2 °F 18% 29.97 in 10.0 mi NW 16.1 mph 31.1 mph N/A   Clear
5:15 PM 41.2 °F 33.7 °F 2.1 °F 20% 29.98 in 10.0 mi WNW 13.8 mph 24.2 mph N/A   Clear
5:35 PM 40.8 °F 35.0 °F 1.0 °F 19% 29.99 in 10.0 mi NW 9.2 mph 24.2 mph N/A   Clear
5:55 PM 40.6 °F 32.7 °F 1.8 °F 20% 30.01 in 10.0 mi NW 15.0 mph 24.2 mph N/A   Clear
6:15 PM 40.3 °F 32.6 °F 3.0 °F 21% 30.02 in 10.0 mi WNW 13.8 mph 24.2 mph N/A   Clear
6:35 PM 39.7 °F 33.2 °F 0.3 °F 19% 30.03 in 10.0 mi NW 10.4 mph 20.7 mph N/A   Clear
6:55 PM 39.2 °F 33.0 °F 0.5 °F 20% 30.04 in 10.0 mi NW 9.2 mph 18.4 mph N/A   Clear
7:15 PM 38.8 °F 31.2 °F 0.5 °F 20% 30.06 in 10.0 mi NW 12.7 mph 20.7 mph N/A   Clear
7:35 PM 38.5 °F 31.6 °F 1.2 °F 21% 30.07 in 10.0 mi WNW 10.4 mph 17.3 mph N/A   Clear
7:55 PM 38.5 °F 30.7 °F 1.8 °F 21% 30.09 in 10.0 mi NW 12.7 mph 19.6 mph N/A   Clear
8:15 PM 38.5 °F 33.4 °F 3.0 °F 23% 30.11 in 10.0 mi NW 6.9 mph 17.3 mph N/A   Clear
8:35 PM 38.3 °F 31.4 °F 2.5 °F 22% 30.11 in 10.0 mi NW 10.4 mph 18.4 mph N/A   Clear
8:55 PM 38.3 °F 32.5 °F 3.0 °F 23% 30.13 in 10.0 mi NW 8.1 mph 18.4 mph N/A   Clear
9:15 PM 37.9 °F 31.5 °F 4.1 °F 24% 30.14 in 10.0 mi NW 9.2 mph 16.1 mph N/A   Clear
9:35 PM 37.8 °F 31.8 °F 4.8 °F 25% 30.16 in 10.0 mi NW 8.1 mph - N/A   Clear
9:55 PM 37.6 °F 31.6 °F 6.6 °F 28% 30.17 in 10.0 mi NW 8.1 mph - N/A   Clear
10:15 PM 37.8 °F 31.3 °F 6.8 °F 28% 30.18 in 10.0 mi NW 9.2 mph 16.1 mph N/A   Clear
10:35 PM 37.8 °F 31.8 °F 7.9 °F 29% 30.18 in 10.0 mi WNW 8.1 mph - N/A   Clear
10:55 PM 37.8 °F 30.7 °F 9.7 °F 31% 30.20 in 10.0 mi WNW 10.4 mph 20.7 mph N/A   Clear
11:15 PM 37.6 °F 31.0 °F 8.6 °F 30% 30.20 in 10.0 mi NW 9.2 mph - N/A   Clear
11:35 PM 37.4 °F 31.4 °F 8.1 °F 30% 30.21 in 10.0 mi NW 8.1 mph - N/A   Clear
11:55 PM 37.0 °F 31.6 °F 8.4 °F 31% 30.21 in 10.0 mi NW 6.9 mph - N/A   Clear